Time;durP1;ratioP1;P1;durP2;ratioP2;P2;SDS_P1;SDS_P2;PMS_P1;PMS_P2;Temp;Humidity;BMP_temperature;BMP_pressure;BME280_temperature;BME280_humidity;BME280_pressure;Samples;Min_cycle;Max_cycle;Signal;HPM_P1;HPM_P2
2023/03/25 00:01:18;;;;;;;7.65;1.75;;;;;;;8.39;100.00;99987.66;5064396;28;20399;-51
2023/03/25 00:03:49;;;;;;;6.60;2.05;;;;;;;8.39;100.00;99990.25;5059134;28;20045;-52
2023/03/25 00:06:18;;;;;;;6.80;1.63;;;;;;;8.38;100.00;99991.19;5056974;28;20448;-48
2023/03/25 00:08:46;;;;;;;9.00;1.67;;;;;;;8.39;100.00;99991.09;5054583;28;20169;-47
2023/03/25 00:11:14;;;;;;;5.70;1.52;;;;;;;8.42;100.00;99992.66;5056248;28;20055;-47
2023/03/25 00:13:43;;;;;;;7.10;1.65;;;;;;;8.39;100.00;99995.50;5054936;28;20068;-47
2023/03/25 00:16:11;;;;;;;4.35;1.50;;;;;;;8.34;100.00;99974.03;5052982;28;20565;-48
2023/03/25 00:18:39;;;;;;;6.60;1.85;;;;;;;8.36;100.00;99983.44;5054981;28;20075;-47
2023/03/25 00:21:10;;;;;;;7.78;2.58;;;;;;;8.32;100.00;99978.50;5055898;28;20037;-49
2023/03/25 00:23:40;;;;;;;8.73;2.03;;;;;;;8.35;100.00;99975.72;5056708;28;20067;-49
2023/03/25 00:26:08;;;;;;;8.63;1.83;;;;;;;8.38;100.00;99980.72;5056840;28;20095;-50
2023/03/25 00:28:38;;;;;;;5.97;1.73;;;;;;;8.35;100.00;99975.72;5055805;28;20049;-48
2023/03/25 00:31:09;;;;;;;7.00;1.83;;;;;;;8.41;100.00;99977.88;5054811;28;20029;-48
2023/03/25 00:33:40;;;;;;;7.03;1.90;;;;;;;8.37;100.00;99979.03;5054488;28;20047;-51
2023/03/25 00:36:12;;;;;;;9.13;1.90;;;;;;;8.37;100.00;99974.66;5059489;28;20788;-52
2023/03/25 00:38:42;;;;;;;8.90;1.80;;;;;;;8.35;100.00;99973.91;5057817;28;20380;-48
2023/03/25 00:41:16;;;;;;;10.93;1.88;;;;;;;8.43;100.00;99978.63;5057233;28;20040;-50
2023/03/25 00:43:45;;;;;;;6.47;1.90;;;;;;;8.42;100.00;99974.31;5062315;28;20041;-47
2023/03/25 00:46:13;;;;;;;7.05;1.63;;;;;;;8.39;100.00;99975.38;5071588;28;20052;-51
2023/03/25 00:48:42;;;;;;;8.55;1.58;;;;;;;8.43;100.00;99974.22;5072148;28;20049;-48
2023/03/25 00:51:13;;;;;;;5.03;1.48;;;;;;;8.42;100.00;99967.28;5071697;28;20446;-51
2023/03/25 00:53:41;;;;;;;11.70;2.08;;;;;;;8.40;100.00;99968.38;5069865;28;20040;-50
2023/03/25 00:56:09;;;;;;;7.47;2.05;;;;;;;8.39;100.00;99967.50;5068298;28;20060;-51
2023/03/25 00:58:37;;;;;;;6.30;2.30;;;;;;;8.42;100.00;99966.47;5064362;28;20095;-50
2023/03/25 01:01:11;;;;;;;8.10;2.03;;;;;;;8.41;100.00;99973.50;5047219;28;20064;-49
2023/03/25 01:03:42;;;;;;;9.50;1.67;;;;;;;8.41;100.00;99970.03;5047794;28;20053;-47
2023/03/25 01:06:14;;;;;;;10.50;3.20;;;;;;;8.47;100.00;99967.00;5049879;28;20057;-51
2023/03/25 01:08:44;;;;;;;8.38;1.92;;;;;;;8.47;100.00;99969.63;5056907;28;20579;-50
2023/03/25 01:11:19;;;;;;;9.50;2.03;;;;;;;8.45;100.00;99972.38;5064519;28;20051;-49
2023/03/25 01:13:47;;;;;;;8.75;2.00;;;;;;;8.49;100.00;99972.97;5057606;28;20056;-57
2023/03/25 01:16:15;;;;;;;8.05;2.08;;;;;;;8.48;100.00;99965.22;5064668;28;20068;-57
2023/03/25 01:18:44;;;;;;;9.23;2.15;;;;;;;8.48;100.00;99970.47;5065379;28;20495;-57
2023/03/25 01:21:13;;;;;;;13.52;1.92;;;;;;;8.43;100.00;99968.97;5059369;28;20488;-57
2023/03/25 01:23:42;;;;;;;9.57;2.15;;;;;;;8.41;100.00;99962.16;5062783;28;20097;-56
2023/03/25 01:26:11;;;;;;;10.23;1.95;;;;;;;8.45;100.00;99976.75;5058126;28;20116;-57
2023/03/25 01:28:40;;;;;;;9.88;1.80;;;;;;;8.43;100.00;99963.72;5064436;28;20097;-56
2023/03/25 01:31:10;;;;;;;8.05;2.60;;;;;;;8.44;100.00;99964.59;5053702;28;20037;-57
2023/03/25 01:33:39;;;;;;;9.98;1.70;;;;;;;8.44;100.00;99964.59;5060436;28;20083;-56
2023/03/25 01:36:11;;;;;;;8.90;1.80;;;;;;;8.45;100.00;99966.28;5060713;28;20052;-56
2023/03/25 01:38:42;;;;;;;10.63;1.98;;;;;;;8.45;100.00;99958.41;5060404;28;20044;-56
2023/03/25 01:41:11;;;;;;;9.75;2.08;;;;;;;8.44;100.00;99960.19;5057361;28;20033;-58
2023/03/25 01:43:39;;;;;;;12.48;2.22;;;;;;;8.46;100.00;99962.72;5060276;28;20047;-56
2023/03/25 01:46:13;;;;;;;10.68;1.85;;;;;;;8.44;100.00;99954.09;5060330;28;20403;-56
2023/03/25 01:48:45;;;;;;;7.00;1.58;;;;;;;8.45;100.00;99956.66;5056188;28;20094;-56
2023/03/25 01:51:20;;;;;;;8.93;2.35;;;;;;;8.46;100.00;99952.22;5057837;28;20056;-58
2023/03/25 01:53:52;;;;;;;5.90;1.73;;;;;;;8.46;100.00;99944.38;5056421;28;20105;-58
2023/03/25 01:56:25;;;;;;;9.52;1.52;;;;;;;8.42;100.00;99953.38;5059295;28;20064;-58
2023/03/25 01:58:55;;;;;;;14.77;2.25;;;;;;;8.42;100.00;99951.56;5054073;28;20112;-58
2023/03/25 02:01:25;;;;;;;9.73;1.50;;;;;;;8.41;100.00;99947.28;5058527;28;20048;-58
2023/03/25 02:04:01;;;;;;;7.93;1.58;;;;;;;8.43;100.00;99955.03;5059603;28;20427;-58
2023/03/25 02:06:38;;;;;;;11.05;2.00;;;;;;;8.42;100.00;99950.75;5058857;28;20135;-58
2023/03/25 02:09:08;;;;;;;7.80;1.88;;;;;;;8.44;100.00;99959.34;5057282;28;20051;-58
2023/03/25 02:11:36;;;;;;;9.02;1.75;;;;;;;8.50;100.00;99950.25;5062418;28;20049;-58
2023/03/25 02:14:08;;;;;;;8.18;1.60;;;;;;;8.41;100.00;99951.69;5061902;28;20075;-58
2023/03/25 02:16:45;;;;;;;7.90;1.50;;;;;;;8.38;100.00;99944.03;5053659;28;20068;-57
2023/03/25 02:19:50;;;;;;;8.63;1.90;;;;;;;8.40;100.00;99952.66;5057005;28;20495;-58
2023/03/25 02:22:52;;;;;;;9.90;2.20;;;;;;;8.38;100.00;99954.53;5058324;28;20415;-58
2023/03/25 02:25:55;;;;;;;10.32;2.20;;;;;;;8.34;100.00;99947.81;5055542;28;20052;-58
2023/03/25 02:28:29;;;;;;;;;;;;;;;8.30;100.00;99944.56;5063160;28;20048;-58
2023/03/25 02:31:21;;;;;;;8.60;1.70;;;;;;;8.23;100.00;99946.78;5060129;28;19959;-58
2023/03/25 02:34:18;;;;;;;11.35;2.50;;;;;;;8.22;100.00;99952.97;5057832;28;20056;-58
2023/03/25 02:37:26;;;;;;;8.57;2.22;;;;;;;8.20;100.00;99941.75;5061765;28;20140;-58
2023/03/25 02:40:00;;;;;;;6.78;1.92;;;;;;;8.10;100.00;99936.31;5059199;28;20085;-57
2023/03/25 02:42:34;;;;;;;6.30;2.10;;;;;;;8.07;100.00;99943.53;5062158;28;20041;-58
2023/03/25 02:45:08;;;;;;;11.43;3.28;;;;;;;8.07;100.00;99940.94;5070179;28;20099;-57
2023/03/25 02:47:42;;;;;;;5.03;1.83;;;;;;;8.02;100.00;99953.53;5069621;28;20053;-58
2023/03/25 02:50:14;;;;;;;7.38;1.83;;;;;;;7.98;100.00;99942.41;5069736;28;20048;-57
2023/03/25 02:52:49;;;;;;;8.82;2.08;;;;;;;7.92;100.00;99938.44;5072025;28;20545;-57
2023/03/25 02:55:21;;;;;;;8.27;2.42;;;;;;;7.97;100.00;99937.28;5073030;28;20102;-57
2023/03/25 02:57:53;;;;;;;6.68;1.83;;;;;;;7.94;100.00;99938.31;5067301;28;20044;-57
2023/03/25 03:00:26;;;;;;;9.83;2.67;;;;;;;7.98;100.00;99936.34;5062859;28;20041;-57
2023/03/25 03:02:58;;;;;;;10.10;2.20;;;;;;;8.01;100.00;99936.13;5063441;28;20047;-58
2023/03/25 03:05:30;;;;;;;7.60;2.30;;;;;;;7.97;100.00;99924.19;5052409;28;20083;-57
2023/03/25 03:08:17;;;;;;;9.23;2.10;;;;;;;7.97;100.00;99942.53;5056265;28;20047;-58
2023/03/25 03:10:53;;;;;;;7.63;2.20;;;;;;;7.92;100.00;99927.09;5065411;28;20048;-58
2023/03/25 03:13:29;;;;;;;5.57;1.80;;;;;;;7.92;100.00;99938.44;5060246;28;20097;-50
2023/03/25 03:16:06;;;;;;;8.50;2.15;;;;;;;7.94;100.00;99938.31;5053999;28;20048;-57
2023/03/25 03:18:47;;;;;;;8.02;1.92;;;;;;;7.97;100.00;99925.00;5056809;28;20044;-57
2023/03/25 03:21:25;;;;;;;7.65;2.08;;;;;;;7.90;100.00;99940.31;5059551;28;20051;-57
2023/03/25 03:24:00;;;;;;;5.53;1.85;;;;;;;7.82;100.00;99934.75;5058239;28;20102;-59
2023/03/25 03:26:38;;;;;;;9.13;2.17;;;;;;;7.75;100.00;99933.50;5056216;28;20083;-58
2023/03/25 03:29:13;;;;;;;6.45;2.75;;;;;;;7.68;100.00;99937.50;5063251;28;20098;-57
2023/03/25 03:31:44;;;;;;;9.55;2.60;;;;;;;7.65;100.00;99948.13;5055744;28;20102;-58
2023/03/25 03:34:39;;;;;;;5.88;2.45;;;;;;;7.65;100.00;99940.28;5051038;28;20044;-57
2023/03/25 03:37:10;;;;;;;8.38;2.58;;;;;;;7.57;100.00;99928.56;5057204;28;20047;-58
2023/03/25 03:39:38;;;;;;;8.35;2.60;;;;;;;7.62;100.00;99936.09;5053696;28;20040;-58
2023/03/25 03:42:14;;;;;;;9.23;2.47;;;;;;;7.66;100.00;99921.03;5057086;28;20032;-58
2023/03/25 03:44:46;;;;;;;12.75;3.10;;;;;;;7.62;100.00;99925.63;5054953;28;20064;-59
2023/03/25 03:47:17;;;;;;;;;;;;;;;7.54;100.00;99931.41;5056270;28;20059;-58
2023/03/25 03:49:52;;;;;;;8.60;3.10;;;;;;;7.52;100.00;99922.81;5057556;28;19925;-49
2023/03/25 03:52:25;;;;;;;9.05;2.60;;;;;;;7.55;100.00;99940.06;5052922;28;20044;-51
2023/03/25 03:54:55;;;;;;;;;;;;;;;7.49;100.00;99930.88;5056625;28;20052;-48
2023/03/25 03:57:30;;;;;;;8.25;2.15;;;;;;;7.47;100.00;99929.28;5059116;28;19928;-47
2023/03/25 04:00:05;;;;;;;6.97;2.40;;;;;;;7.53;100.00;99929.72;5061145;28;20393;-50
2023/03/25 04:02:38;;;;;;;7.97;2.58;;;;;;;7.57;100.00;99930.34;5057261;28;20056;-48
2023/03/25 04:05:10;;;;;;;6.15;2.42;;;;;;;7.54;100.00;99923.56;5059462;28;20052;-48
2023/03/25 04:07:41;;;;;;;7.88;2.42;;;;;;;7.57;100.00;99932.97;5058781;28;20064;-49
2023/03/25 04:10:14;;;;;;;10.38;2.65;;;;;;;7.60;100.00;99938.81;5065946;28;20071;-47
2023/03/25 04:12:48;;;;;;;11.02;2.40;;;;;;;7.59;100.00;99926.69;5062661;28;20036;-48
2023/03/25 04:15:16;;;;;;;6.72;2.20;;;;;;;7.58;100.00;99929.41;5056314;28;20037;-56
2023/03/25 04:17:46;;;;;;;9.07;2.40;;;;;;;7.63;100.00;99937.78;5058006;28;20543;-56
2023/03/25 04:20:22;;;;;;;9.32;2.83;;;;;;;7.64;100.00;99938.63;5058192;28;20052;-56
2023/03/25 04:22:51;;;;;;;8.23;2.35;;;;;;;7.67;100.00;99933.19;5059079;28;20131;-56
2023/03/25 04:25:20;;;;;;;9.43;2.60;;;;;;;7.60;100.00;99928.34;5062244;28;20052;-56
2023/03/25 04:27:57;;;;;;;9.65;2.80;;;;;;;7.59;100.00;99926.69;5055381;28;20711;-56
2023/03/25 04:30:27;;;;;;;6.65;2.35;;;;;;;7.58;100.00;99924.16;5056221;28;20053;-56
2023/03/25 04:32:55;;;;;;;11.10;2.70;;;;;;;7.59;100.00;99920.59;5059295;28;20476;-56
2023/03/25 04:35:24;;;;;;;12.15;2.63;;;;;;;7.59;100.00;99920.59;5059290;28;20048;-56
2023/03/25 04:37:55;;;;;;;9.32;2.40;;;;;;;7.61;100.00;99922.19;5054851;28;20079;-56
2023/03/25 04:40:24;;;;;;;11.00;2.80;;;;;;;7.57;100.00;99917.28;5056633;28;20066;-56
2023/03/25 04:42:55;;;;;;;7.85;2.25;;;;;;;7.54;100.00;99923.56;5054910;28;20456;-56
2023/03/25 04:45:24;;;;;;;10.60;2.47;;;;;;;7.57;100.00;99923.34;5070728;28;20053;-56
2023/03/25 04:47:53;;;;;;;12.45;3.55;;;;;;;7.56;100.00;99921.66;5071487;28;20052;-58
2023/03/25 04:50:24;;;;;;;11.00;2.80;;;;;;;7.54;100.00;99913.09;5070074;28;20109;-56
2023/03/25 04:52:53;;;;;;;8.52;2.35;;;;;;;7.53;100.00;99918.41;5073300;28;20047;-58
2023/03/25 04:55:21;;;;;;;9.10;2.22;;;;;;;7.52;100.00;99924.59;5073045;28;20049;-56
2023/03/25 04:57:51;;;;;;;8.20;2.20;;;;;;;7.58;100.00;99918.94;5061324;28;20049;-56
2023/03/25 05:00:22;;;;;;;9.60;2.47;;;;;;;7.59;100.00;99915.38;5066839;28;20036;-57
2023/03/25 05:02:53;;;;;;;11.15;2.22;;;;;;;7.56;100.00;99908.56;5057893;28;20056;-57
2023/03/25 05:05:23;;;;;;;13.00;2.30;;;;;;;7.60;100.00;99912.66;5059373;28;20056;-57
2023/03/25 05:07:56;;;;;;;9.40;1.92;;;;;;;7.63;100.00;99919.47;5059120;28;20053;-57
2023/03/25 05:10:28;;;;;;;9.32;2.47;;;;;;;7.63;100.00;99923.88;5063291;28;20044;-57
2023/03/25 05:12:59;;;;;;;13.00;3.25;;;;;;;7.64;100.00;99912.47;5063087;28;20101;-57
2023/03/25 05:15:31;;;;;;;7.82;2.50;;;;;;;7.64;100.00;99918.53;5061537;28;20462;-57
2023/03/25 05:18:00;;;;;;;11.87;3.27;;;;;;;7.66;100.00;99915.81;5062303;28;20494;-57
2023/03/25 05:20:29;;;;;;;14.07;2.38;;;;;;;7.67;100.00;99917.47;5056639;28;20749;-57
2023/03/25 05:22:57;;;;;;;8.32;2.28;;;;;;;7.70;100.00;99918.13;5058562;28;20386;-57
2023/03/25 05:25:27;;;;;;;7.75;2.20;;;;;;;7.71;100.00;99924.19;5059794;28;20123;-57
2023/03/25 05:27:55;;;;;;;10.13;2.33;;;;;;;7.71;100.00;99926.81;5063758;28;20053;-57
2023/03/25 05:30:24;;;;;;;12.73;5.07;;;;;;;7.77;100.00;99934.22;5059948;28;20049;-57
2023/03/25 05:32:55;;;;;;;15.18;5.10;;;;;;;7.81;100.00;99930.47;5056331;28;20064;-57
2023/03/25 05:35:26;;;;;;;9.88;2.40;;;;;;;7.76;100.00;99925.53;5061409;28;20048;-56
2023/03/25 05:37:55;;;;;;;15.40;2.72;;;;;;;7.77;100.00;99929.00;5059105;28;20787;-57
2023/03/25 05:40:24;;;;;;;7.30;1.92;;;;;;;7.75;100.00;99928.28;5056471;28;20689;-56
2023/03/25 05:42:53;;;;;;;8.70;2.10;;;;;;;7.76;100.00;99933.41;5057755;28;20045;-56
2023/03/25 05:45:22;;;;;;;11.80;2.28;;;;;;;7.79;100.00;99941.03;5062324;28;20067;-57
2023/03/25 05:47:51;;;;;;;7.20;2.03;;;;;;;7.79;100.00;99940.22;5054512;28;20107;-56
2023/03/25 05:50:21;;;;;;;8.00;2.38;;;;;;;7.80;100.00;99947.13;5061059;28;20529;-57
2023/03/25 05:52:50;;;;;;;7.13;2.53;;;;;;;7.76;100.00;99941.25;5060480;28;20040;-56
2023/03/25 05:55:20;;;;;;;9.18;2.72;;;;;;;7.81;100.00;99961.88;5060396;28;20040;-56
2023/03/25 05:57:48;;;;;;;10.50;2.33;;;;;;;7.73;100.00;99951.09;5060190;28;20471;-56
2023/03/25 06:00:20;;;;;;;10.25;2.65;;;;;;;7.71;100.00;99950.38;5057591;28;20087;-56
2023/03/25 06:02:50;;;;;;;9.02;2.50;;;;;;;7.71;100.00;99945.13;5059231;28;20186;-57
2023/03/25 06:05:23;;;;;;;8.57;2.15;;;;;;;7.72;100.00;99936.34;5060494;28;20094;-56
2023/03/25 06:07:54;;;;;;;9.95;2.30;;;;;;;7.71;100.00;99960.84;5055791;28;20056;-56
2023/03/25 06:10:23;;;;;;;12.40;2.58;;;;;;;7.78;100.00;99959.47;5058455;28;20091;-56
2023/03/25 06:12:52;;;;;;;13.00;2.80;;;;;;;7.72;100.00;99958.09;5052608;28;20112;-56
2023/03/25 06:15:27;;;;;;;9.38;2.50;;;;;;;7.74;100.00;99965.84;5054596;28;20119;-57
2023/03/25 06:17:56;;;;;;;7.47;2.40;;;;;;;7.74;100.00;99960.63;5055301;28;20099;-56
2023/03/25 06:20:26;;;;;;;8.07;2.65;;;;;;;7.71;100.00;99961.66;5055602;28;20696;-56
2023/03/25 06:22:55;;;;;;;7.93;2.63;;;;;;;7.76;100.00;99963.97;5057445;28;20033;-57
2023/03/25 06:25:23;;;;;;;10.27;2.83;;;;;;;7.72;100.00;99960.72;5051139;28;20777;-57
2023/03/25 06:27:51;;;;;;;12.55;3.40;;;;;;;7.77;100.00;99963.88;5053956;28;20052;-56
2023/03/25 06:30:21;;;;;;;10.32;2.65;;;;;;;7.74;100.00;99966.72;5058425;28;20385;-56
2023/03/25 06:32:51;;;;;;;13.35;3.03;;;;;;;7.71;100.00;99966.06;5059026;28;20049;-56
2023/03/25 06:35:20;;;;;;;14.52;3.35;;;;;;;7.69;100.00;99971.41;5058349;28;20044;-57
2023/03/25 06:37:50;;;;;;;12.48;3.47;;;;;;;7.79;100.00;99972.44;5057602;28;20059;-56
2023/03/25 06:40:18;;;;;;;12.48;3.60;;;;;;;7.78;100.00;99962.94;5056780;28;20052;-49
2023/03/25 06:42:47;;;;;;;14.07;3.53;;;;;;;7.77;100.00;99963.88;5058184;28;20044;-52
2023/03/25 06:45:15;;;;;;;11.55;3.25;;;;;;;7.83;100.00;99970.47;5065102;28;20051;-49
2023/03/25 06:47:43;;;;;;;11.93;3.13;;;;;;;7.84;100.00;99966.91;5070788;28;20072;-47
2023/03/25 06:50:11;;;;;;;11.50;3.17;;;;;;;7.94;100.00;99978.44;5069104;28;20098;-50
2023/03/25 06:52:39;;;;;;;11.35;3.15;;;;;;;7.94;100.00;99972.38;5058143;28;20624;-49
2023/03/25 06:55:10;;;;;;;11.35;3.33;;;;;;;7.92;100.00;99967.25;5065697;28;20078;-49
2023/03/25 06:57:38;;;;;;;8.57;2.67;;;;;;;7.90;100.00;99976.97;5055286;28;20095;-48
2023/03/25 07:00:08;;;;;;;11.95;3.20;;;;;;;7.98;100.00;99975.63;5055455;28;20072;-51
2023/03/25 07:02:36;;;;;;;10.10;2.92;;;;;;;7.97;100.00;99984.41;5054240;28;20041;-50
2023/03/25 07:05:05;;;;;;;11.90;3.95;;;;;;;8.01;100.00;99983.25;5057578;28;20060;-49
2023/03/25 07:07:34;;;;;;;10.60;2.97;;;;;;;7.98;100.00;99978.25;5059147;28;20040;-51
2023/03/25 07:10:02;;;;;;;9.40;2.65;;;;;;;7.95;100.00;99984.53;5061022;28;20056;-51
2023/03/25 07:12:34;;;;;;;12.23;2.58;;;;;;;8.07;100.00;99982.81;5063590;28;20060;-49
2023/03/25 07:15:02;;;;;;;10.68;2.45;;;;;;;8.01;100.00;99970.16;5058235;28;20053;-47
2023/03/25 07:17:30;;;;;;;9.27;2.53;;;;;;;8.04;100.00;99977.81;5057750;28;20052;-47
2023/03/25 07:19:58;;;;;;;12.13;2.72;;;;;;;8.12;100.00;99976.31;5052940;28;20423;-52
2023/03/25 07:22:26;;;;;;;13.15;2.95;;;;;;;8.14;100.00;99973.63;5050693;28;20063;-50
2023/03/25 07:24:57;;;;;;;16.45;3.70;;;;;;;8.19;100.00;99963.66;5056282;28;20123;-52
2023/03/25 07:27:26;;;;;;;11.85;2.55;;;;;;;8.17;100.00;99956.88;5054428;28;20702;-49
2023/03/25 07:29:55;;;;;;;10.82;3.00;;;;;;;8.17;100.00;99978.66;5056584;28;20056;-48
2023/03/25 07:32:25;;;;;;;17.23;3.97;;;;;;;8.23;100.00;99983.44;5063001;28;20426;-51
2023/03/25 07:34:56;;;;;;;14.07;3.63;;;;;;;8.19;100.00;99984.59;5064610;28;20065;-50
2023/03/25 07:37:24;;;;;;;8.45;3.33;;;;;;;8.16;100.00;99986.63;5062368;28;20101;-52
2023/03/25 07:39:52;;;;;;;13.02;3.42;;;;;;;8.10;100.00;99985.25;5063733;28;20048;-49
2023/03/25 07:42:20;;;;;;;18.17;3.78;;;;;;;8.12;100.00;99985.97;5057056;28;20193;-51
2023/03/25 07:44:48;;;;;;;15.27;3.65;;;;;;;8.10;100.00;99983.47;5063259;28;20045;-48
2023/03/25 07:47:18;;;;;;;15.52;3.70;;;;;;;8.20;100.00;99996.75;5057904;28;20052;-50
2023/03/25 07:49:49;;;;;;;12.27;3.00;;;;;;;8.26;100.00;99985.03;5064046;28;20128;-50
2023/03/25 07:52:17;;;;;;;7.90;3.00;;;;;;;8.29;100.00;99998.75;5068592;28;20811;-52
2023/03/25 07:54:45;;;;;;;14.13;3.55;;;;;;;8.31;100.00;99997.81;5053561;28;20041;-49
2023/03/25 07:57:15;;;;;;;14.15;3.30;;;;;;;8.34;100.00;99985.31;5057604;28;20066;-48
2023/03/25 07:59:44;;;;;;;11.82;3.17;;;;;;;8.35;100.00;99987.00;5055517;28;20399;-50
2023/03/25 08:02:13;;;;;;;9.88;3.10;;;;;;;8.32;100.00;99999.47;5057494;28;20044;-51
2023/03/25 08:04:45;;;;;;;15.70;3.10;;;;;;;8.40;100.00;99991.94;5070546;28;20123;-51
2023/03/25 08:07:13;;;;;;;12.60;3.28;;;;;;;8.37;100.00;100013.09;5066525;28;20669;-50
2023/03/25 08:09:44;;;;;;;12.30;4.18;;;;;;;8.41;100.00;100007.56;5057380;28;20044;-50
2023/03/25 08:12:12;;;;;;;9.55;3.30;;;;;;;8.35;100.00;100012.38;5055168;28;20504;-51
2023/03/25 08:14:40;;;;;;;11.13;3.45;;;;;;;8.31;100.00;100009.13;5050766;28;20770;-50
2023/03/25 08:17:09;;;;;;;12.05;3.13;;;;;;;8.29;100.00;100024.97;5051963;28;20036;-51
2023/03/25 08:19:37;;;;;;;13.05;3.35;;;;;;;8.27;100.00;100013.72;5056232;28;20043;-52
2023/03/25 08:22:06;;;;;;;10.68;3.10;;;;;;;8.21;100.00;100015.97;5056199;28;20068;-53
2023/03/25 08:24:34;;;;;;;12.55;3.38;;;;;;;8.31;100.00;100021.41;5052802;28;20061;-48
2023/03/25 08:27:03;;;;;;;13.73;3.20;;;;;;;8.35;100.00;100015.00;5057230;28;20059;-48
2023/03/25 08:29:43;;;;;;;20.52;4.40;;;;;;;8.59;100.00;100008.09;5057761;28;21011;-48
2023/03/25 08:32:11;;;;;;;13.88;3.40;;;;;;;8.85;100.00;100018.53;5061792;28;20067;-48
2023/03/25 08:34:42;;;;;;;15.60;2.95;;;;;;;8.85;100.00;100021.16;5059690;28;20037;-48
2023/03/25 08:37:12;;;;;;;13.85;3.10;;;;;;;8.89;100.00;100027.84;5059348;28;20049;-47
2023/03/25 08:39:40;;;;;;;12.60;3.67;;;;;;;8.99;100.00;100019.31;5060002;28;20106;-49
2023/03/25 08:42:09;;;;;;;14.13;3.17;;;;;;;8.98;100.00;100023.72;5058813;28;20029;-49
2023/03/25 08:44:37;;;;;;;10.20;2.85;;;;;;;9.08;100.00;100029.13;5057251;28;20064;-49
2023/03/25 08:47:08;;;;;;;15.23;3.40;;;;;;;9.08;100.00;100016.03;5058454;28;20046;-50
2023/03/25 08:49:36;;;;;;;15.05;3.47;;;;;;;9.08;100.00;100021.25;5054210;28;20048;-48
2023/03/25 08:52:07;;;;;;;18.08;2.90;;;;;;;9.09;100.00;100034.28;5057853;28;20098;-49
2023/03/25 08:54:37;;;;;;;12.95;3.22;;;;;;;9.09;100.00;100022.94;5073280;28;20044;-47
2023/03/25 08:57:05;;;;;;;15.93;3.15;;;;;;;9.05;100.00;100026.75;5072023;28;20036;-49
2023/03/25 08:59:36;;;;;;;13.68;3.15;;;;;;;9.08;100.00;100026.50;5072323;28;20098;-45
2023/03/25 09:02:04;;;;;;;17.13;3.10;;;;;;;9.17;100.00;100031.09;5074644;28;20117;-48
2023/03/25 09:04:32;;;;;;;13.43;3.58;;;;;;;9.17;100.00;100036.34;5075405;28;20044;-47
2023/03/25 09:07:00;;;;;;;14.18;2.80;;;;;;;9.05;100.00;100031.97;5075205;28;20074;-49
2023/03/25 09:09:40;;;;;;;13.88;3.45;;;;;;;9.17;100.00;100040.78;5075142;28;20052;-50
2023/03/25 09:12:09;;;;;;;17.17;3.45;;;;;;;9.11;100.00;100028.94;5066411;28;20132;-49
2023/03/25 09:14:37;;;;;;;12.35;2.90;;;;;;;9.09;100.00;100042.16;5066918;28;20048;-49
2023/03/25 09:17:05;;;;;;;16.95;3.80;;;;;;;9.11;100.00;100026.31;5074429;28;20068;-50
2023/03/25 09:19:36;;;;;;;16.67;3.45;;;;;;;9.36;100.00;100017.47;5074999;28;20391;-51
2023/03/25 09:22:05;;;;;;;15.63;2.70;;;;;;;9.46;100.00;100013.25;5073591;28;20097;-50
2023/03/25 09:24:36;;;;;;;11.95;2.47;;;;;;;9.42;100.00;100016.19;5057806;28;20087;-49
2023/03/25 09:27:09;;;;;;;13.73;2.58;;;;;;;9.47;100.00;100022.81;5056660;28;20091;-51
2023/03/25 09:29:39;;;;;;;17.83;3.20;;;;;;;9.50;100.00;100015.63;5052185;28;20036;-49
2023/03/25 09:32:08;;;;;;;11.35;3.13;;;;;;;9.57;100.00;100009.84;5060072;28;20491;-52
2023/03/25 09:34:37;;;;;;;13.50;2.60;;;;;;;9.55;100.00;100022.22;5058109;28;20041;-51
2023/03/25 09:37:05;;;;;;;15.45;3.15;;;;;;;9.65;100.00;100014.50;5056955;28;20048;-51
2023/03/25 09:39:33;;;;;;;16.00;3.00;;;;;;;9.78;100.00;100023.13;5061006;28;20045;-49
2023/03/25 09:42:27;;;;;;;16.35;3.17;;;;;;;9.81;100.00;100022.91;5059324;28;20052;-49
2023/03/25 09:45:01;;;;;;;13.80;3.35;;;;;;;9.77;100.00;100020.63;5056239;28;20040;-53
2023/03/25 09:47:41;;;;;;;17.15;3.28;;;;;;;9.94;100.00;100030.72;5053477;28;20102;-51
2023/03/25 09:50:14;;;;;;;19.17;3.63;;;;;;;10.02;100.00;100034.53;5056454;28;20036;-50
2023/03/25 09:52:50;;;;;;;12.80;2.97;;;;;;;10.09;100.00;100028.72;5057768;28;20056;-50
2023/03/25 09:55:24;;;;;;;16.92;3.50;;;;;;;10.29;100.00;100044.72;5056127;28;20056;-49
2023/03/25 09:58:00;;;;;;;17.73;3.03;;;;;;;10.17;100.00;100056.19;5057039;28;20048;-52
2023/03/25 10:00:28;;;;;;;15.07;3.15;;;;;;;10.26;100.00;100043.16;5054635;28;20068;-52
2023/03/25 10:03:12;;;;;;;12.90;2.83;;;;;;;10.22;100.00;100043.53;5057488;28;20033;-52
2023/03/25 10:05:55;;;;;;;13.65;2.70;;;;;;;10.42;100.00;100053.38;5052433;28;20124;-50
2023/03/25 10:08:34;;;;;;;14.68;2.97;;;;;;;10.64;100.00;100036.78;5056379;28;20102;-47
2023/03/25 10:11:06;;;;;;;13.63;2.90;;;;;;;10.89;100.00;100044.53;5057615;28;20044;-49
2023/03/25 10:13:46;;;;;;;13.60;2.90;;;;;;;11.15;100.00;100052.97;5057903;28;20441;-50
2023/03/25 10:16:26;;;;;;;14.18;2.83;;;;;;;11.37;100.00;100052.09;5056413;28;20044;-48
2023/03/25 10:19:04;;;;;;;17.30;3.53;;;;;;;11.64;100.00;100043.75;5051996;28;20048;-49
2023/03/25 10:21:39;;;;;;;15.98;3.17;;;;;;;11.56;100.00;100046.19;5050167;28;20059;-50
2023/03/25 10:24:18;;;;;;;14.57;3.28;;;;;;;11.37;100.00;100033.69;5051598;28;20440;-50
2023/03/25 10:26:52;;;;;;;17.38;3.17;;;;;;;11.14;100.00;100064.47;5053808;28;20110;-50
2023/03/25 10:29:28;;;;;;;16.73;2.88;;;;;;;11.06;100.00;100054.56;5050169;28;20502;-57
2023/03/25 10:32:00;;;;;;;14.55;3.45;;;;;;;11.15;100.00;100052.97;5053047;28;20052;-57
2023/03/25 10:34:37;;;;;;;13.48;2.65;;;;;;;11.06;100.00;100061.63;5053453;28;20040;-57
2023/03/25 10:37:11;;;;;;;16.15;3.35;;;;;;;11.10;100.00;100060.44;5050719;28;20068;-57
2023/03/25 10:39:44;;;;;;;17.27;3.60;;;;;;;10.95;100.00;100067.75;5056557;28;20443;-58
2023/03/25 10:42:20;;;;;;;19.33;3.00;;;;;;;10.90;100.00;100068.09;5055817;28;20044;-59
2023/03/25 10:44:50;;;;;;;16.45;3.30;;;;;;;10.72;100.00;100065.13;5049073;28;20150;-58
2023/03/25 10:47:26;;;;;;;20.25;3.65;;;;;;;10.67;100.00;100048.03;5051324;28;20080;-57
2023/03/25 10:49:55;;;;;;;19.05;3.30;;;;;;;10.73;100.00;100055.41;5055919;28;20134;-57
2023/03/25 10:52:24;;;;;;;16.15;3.30;;;;;;;10.54;100.00;100059.50;5061797;28;20044;-58
2023/03/25 10:54:56;;;;;;;17.88;3.35;;;;;;;10.26;100.00;100079.97;5054946;28;20483;-58
2023/03/25 10:57:27;;;;;;;17.42;3.03;;;;;;;10.25;100.00;100077.47;5051102;28;20040;-58
2023/03/25 11:00:05;;;;;;;14.55;2.78;;;;;;;9.67;100.00;100074.75;5054934;28;20098;-58
2023/03/25 11:02:33;;;;;;;8.07;1.85;;;;;;;9.48;100.00;100069.06;5051884;28;20055;-58
2023/03/25 11:05:05;;;;;;;12.95;2.90;;;;;;;9.43;100.00;100083.50;5053744;28;20049;-57
2023/03/25 11:07:36;;;;;;;13.20;2.78;;;;;;;9.51;100.00;100075.06;5059428;28;20041;-57
2023/03/25 11:10:11;;;;;;;13.88;2.95;;;;;;;9.66;100.00;100070.47;5056253;28;20058;-57
2023/03/25 11:12:42;;;;;;;16.63;2.72;;;;;;;9.79;100.00;100066.00;5050760;28;20139;-57
2023/03/25 11:15:15;;;;;;;21.20;3.38;;;;;;;9.91;100.00;100061.59;5057273;28;20055;-57
2023/03/25 11:17:46;;;;;;;19.33;3.95;;;;;;;9.97;100.00;100055.91;5050513;28;20251;-57
2023/03/25 11:20:21;;;;;;;16.00;3.17;;;;;;;9.97;100.00;100063.78;5055075;28;20541;-57
2023/03/25 11:22:53;;;;;;;11.57;2.22;;;;;;;9.93;100.00;100083.34;5054538;28;20053;-57
2023/03/25 11:25:25;;;;;;;14.55;2.28;;;;;;;9.82;100.00;100068.41;5055274;28;20051;-57
2023/03/25 11:27:58;;;;;;;17.25;2.88;;;;;;;9.95;100.00;100073.56;5059825;28;20037;-57
2023/03/25 11:30:27;;;;;;;19.50;3.00;;;;;;;10.01;100.00;100073.13;5053067;28;20048;-57
2023/03/25 11:33:02;;;;;;;13.77;2.58;;;;;;;10.14;100.00;100079.13;5058435;28;20048;-57
2023/03/25 11:35:33;;;;;;;17.48;3.47;;;;;;;10.47;100.00;100068.78;5071941;28;20098;-57
2023/03/25 11:38:13;;;;;;;13.43;2.85;;;;;;;10.70;100.00;100080.16;5072542;28;20063;-57
2023/03/25 11:40:50;;;;;;;14.70;2.47;;;;;;;10.98;100.00;100075.38;5072610;28;20101;-57
2023/03/25 11:43:22;;;;;;;14.30;2.47;;;;;;;11.43;100.00;100066.56;5069795;28;20551;-57
2023/03/25 11:45:52;;;;;;;18.50;2.60;;;;;;;11.78;100.00;100065.47;5067318;28;20051;-57
2023/03/25 11:48:23;;;;;;;15.70;2.70;;;;;;;11.75;100.00;100065.72;5066982;28;20465;-57